International Falls, Minnesota
Current Conditions -  °F | °C
As of 2:55 PM on Friday 24 Oct 2014 (Local Time) from KINL Reporting Station
Clear Clear  
Wind Chill: 21°   Ceiling: Unl
Heat Index: 21°   Visibility: 10mi
Dew Point:   Wind: 12mph
Humidity: 35%   Direction: 260°W
Pressure: 29.67"   Gusts: 18mph
Location:  48.6°N, 93.4°W
Report Text: KINL 241955Z AUTO 26010G16KT 10SM CLR 21/04 A2967 RMK AO2 SLP051 T02060044
Loading
Personal Weather Stations






























Interactive Weather Map New forecast layout! Learn more

10-Day Weather Forecast

Advertisements
Track Severe Weather on mobile